KBZN/BZN METAR and TAF weather

Enter ICAO airport designator
Station Type Date Time Source
KBZN METAR 2022/11/30 17:56 UTC NOAA

KBZN 301756Z 14004KT 10SM OVC085 M13/M15 A2978 RMK AO2 SLP174 T11281150 11128 21178 56019


Station Type Date Time Source
KBZN Decoded METAR 2022/11/30 17:56 UTC NOAA

BOZEMAN GALLATIN FIELD, MT, United States (KBZN) 45-47N 111-09W 1361M
Nov 30, 2022 - 12:56 PM EST / 2022.11.30 1756 UTC
Wind: from the SE (140 degrees) at 5 MPH (4 KT):0
Visibility: 10 mile(s):0
Sky conditions: overcast
Temperature: 9.0 F (-12.8 C)
Windchill: 0 F (-18 C):1
Dew Point: 5.0 F (-15.0 C)
Relative Humidity: 83%
Pressure (altimeter): 29.78 in. Hg (1008 hPa)
Pressure tendency: 0.06 inches (1.9 hPa) lower than three hours ago
ob: KBZN 301756Z 14004KT 10SM OVC085 M13/M15 A2978 RMK AO2 SLP174 T11281150 11128 21178 56019
cycle: 18

Station Type Date Time Source
KBZN TAF 2022/11/30 18:57 UTC NOAA

TAF KBZN 301754Z 3018/0124 VRB04KT P6SM BKN080
FM010600 13009KT P6SM OVC090
FM012000 22008KT P6SM SCT040 BKN060

Example: see airport list